sensor_id;sensor_type;location;lat;lon;timestamp;temperature;humidity
31975;DHT22;18500;43.618;1.474;2022-11-23T07:06:16;12.80;1.00
31975;DHT22;18500;43.618;1.474;2022-11-23T07:08:42;12.80;1.00
31975;DHT22;18500;43.618;1.474;2022-11-23T07:11:09;12.70;1.00
31975;DHT22;18500;43.618;1.474;2022-11-23T07:13:35;12.70;1.00
31975;DHT22;18500;43.618;1.474;2022-11-23T07:16:01;12.80;1.00
31975;DHT22;18500;43.618;1.474;2022-11-23T07:18:27;12.80;1.00
31975;DHT22;18500;43.618;1.474;2022-11-23T07:20:55;12.80;1.00
31975;DHT22;18500;43.618;1.474;2022-11-23T07:23:21;12.90;1.00
31975;DHT22;18500;43.618;1.474;2022-11-23T07:25:47;12.80;1.00
31975;DHT22;18500;43.618;1.474;2022-11-23T07:28:15;12.80;1.00
31975;DHT22;18500;43.618;1.474;2022-11-23T07:30:41;12.80;1.00
31975;DHT22;18500;43.618;1.474;2022-11-23T07:33:09;12.90;1.00
31975;DHT22;18500;43.618;1.474;2022-11-23T07:35:39;12.80;1.00
31975;DHT22;18500;43.618;1.474;2022-11-23T07:38:06;12.90;1.00
31975;DHT22;18500;43.618;1.474;2022-11-23T07:40:38;12.90;1.00
31975;DHT22;18500;43.618;1.474;2022-11-23T07:43:05;12.90;1.00
31975;DHT22;18500;43.618;1.474;2022-11-23T07:45:32;12.90;1.00
31975;DHT22;18500;43.618;1.474;2022-11-23T07:47:59;12.90;1.00
31975;DHT22;18500;43.618;1.474;2022-11-23T07:50:25;12.90;1.00
31975;DHT22;18500;43.618;1.474;2022-11-23T07:52:51;12.90;1.00
31975;DHT22;18500;43.618;1.474;2022-11-23T07:55:17;12.90;1.00
31975;DHT22;18500;43.618;1.474;2022-11-23T07:57:42;12.90;1.00
31975;DHT22;18500;43.618;1.474;2022-11-23T08:00:08;13.00;1.00
31975;DHT22;18500;43.618;1.474;2022-11-23T08:02:34;13.00;1.00
31975;DHT22;18500;43.618;1.474;2022-11-23T08:05:00;12.90;1.00
31975;DHT22;18500;43.618;1.474;2022-11-23T08:07:25;13.00;1.00
31975;DHT22;18500;43.618;1.474;2022-11-23T08:09:51;13.00;1.00
31975;DHT22;18500;43.618;1.474;2022-11-23T08:12:17;13.00;1.00
31975;DHT22;18500;43.618;1.474;2022-11-23T08:14:42;13.00;1.00
31975;DHT22;18500;43.618;1.474;2022-11-23T08:17:08;13.10;1.00
31975;DHT22;18500;43.618;1.474;2022-11-23T08:19:34;13.10;1.00
31975;DHT22;18500;43.618;1.474;2022-11-23T08:22:00;13.00;1.00
31975;DHT22;18500;43.618;1.474;2022-11-23T08:24:26;13.00;1.00
31975;DHT22;18500;43.618;1.474;2022-11-23T08:26:51;13.10;1.00
31975;DHT22;18500;43.618;1.474;2022-11-23T08:29:17;13.00;1.00
31975;DHT22;18500;43.618;1.474;2022-11-23T08:31:43;13.10;1.00
31975;DHT22;18500;43.618;1.474;2022-11-23T08:34:09;13.10;1.00
31975;DHT22;18500;43.618;1.474;2022-11-23T08:36:35;13.20;1.00
31975;DHT22;18500;43.618;1.474;2022-11-23T08:39:01;13.20;1.00
31975;DHT22;18500;43.618;1.474;2022-11-23T08:41:26;13.20;1.00
31975;DHT22;18500;43.618;1.474;2022-11-23T08:43:52;13.20;1.00
31975;DHT22;18500;43.618;1.474;2022-11-23T08:46:18;13.20;1.00
31975;DHT22;18500;43.618;1.474;2022-11-23T08:48:44;13.30;1.00
31975;DHT22;18500;43.618;1.474;2022-11-23T08:51:10;13.30;1.00
31975;DHT22;18500;43.618;1.474;2022-11-23T08:53:36;13.30;1.00
31975;DHT22;18500;43.618;1.474;2022-11-23T08:56:03;13.30;1.00
31975;DHT22;18500;43.618;1.474;2022-11-23T08:58:30;13.40;1.00
31975;DHT22;18500;43.618;1.474;2022-11-23T09:00:55;13.30;1.00
31975;DHT22;18500;43.618;1.474;2022-11-23T09:03:21;13.40;1.00
31975;DHT22;18500;43.618;1.474;2022-11-23T09:05:47;13.40;1.00
31975;DHT22;18500;43.618;1.474;2022-11-23T09:08:13;13.30;1.00
31975;DHT22;18500;43.618;1.474;2022-11-23T09:10:41;13.40;1.00
31975;DHT22;18500;43.618;1.474;2022-11-23T09:13:07;13.40;1.00
31975;DHT22;18500;43.618;1.474;2022-11-23T09:15:32;13.50;1.00
31975;DHT22;18500;43.618;1.474;2022-11-23T09:17:58;13.50;1.00
31975;DHT22;18500;43.618;1.474;2022-11-23T09:20:24;13.60;1.00
31975;DHT22;18500;43.618;1.474;2022-11-23T09:22:51;13.50;99.90
31975;DHT22;18500;43.618;1.474;2022-11-23T09:25:17;13.70;99.90
31975;DHT22;18500;43.618;1.474;2022-11-23T09:27:43;13.70;99.90
31975;DHT22;18500;43.618;1.474;2022-11-23T09:30:09;13.80;99.90
31975;DHT22;18500;43.618;1.474;2022-11-23T09:32:35;13.70;99.90
31975;DHT22;18500;43.618;1.474;2022-11-23T09:35:00;13.70;99.90
31975;DHT22;18500;43.618;1.474;2022-11-23T09:37:26;13.70;99.90
31975;DHT22;18500;43.618;1.474;2022-11-23T09:39:52;13.80;99.90
31975;DHT22;18500;43.618;1.474;2022-11-23T09:45:17;14.00;99.90
31975;DHT22;18500;43.618;1.474;2022-11-23T09:47:53;13.90;99.90
31975;DHT22;18500;43.618;1.474;2022-11-23T09:52:54;14.00;99.90
31975;DHT22;18500;43.618;1.474;2022-11-23T09:55:47;14.00;99.90
31975;DHT22;18500;43.618;1.474;2022-11-23T09:58:19;14.10;99.90
31975;DHT22;18500;43.618;1.474;2022-11-23T10:00:59;14.30;99.90
31975;DHT22;18500;43.618;1.474;2022-11-23T10:03:27;14.40;99.90
31975;DHT22;18500;43.618;1.474;2022-11-23T10:05:59;14.50;99.90
31975;DHT22;18500;43.618;1.474;2022-11-23T10:17:08;15.30;99.90
31975;DHT22;18500;43.618;1.474;2022-11-23T10:20:10;15.40;99.90
31975;DHT22;18500;43.618;1.474;2022-11-23T10:23:00;15.30;99.90
31975;DHT22;18500;43.618;1.474;2022-11-23T10:25:47;15.30;99.90
31975;DHT22;18500;43.618;1.474;2022-11-23T10:28:16;15.10;99.90
31975;DHT22;18500;43.618;1.474;2022-11-23T10:30:45;15.30;1.00
31975;DHT22;18500;43.618;1.474;2022-11-23T10:35:46;15.00;99.90
31975;DHT22;18500;43.618;1.474;2022-11-23T10:38:20;14.90;99.90
31975;DHT22;18500;43.618;1.474;2022-11-23T10:44:14;15.20;99.90
31975;DHT22;18500;43.618;1.474;2022-11-23T10:46:43;15.10;1.00
31975;DHT22;18500;43.618;1.474;2022-11-23T10:51:51;15.20;3.20
31975;DHT22;18500;43.618;1.474;2022-11-23T10:54:21;15.20;99.90
31975;DHT22;18500;43.618;1.474;2022-11-23T10:56:50;15.00;99.90
31975;DHT22;18500;43.618;1.474;2022-11-23T10:59:37;14.90;99.90
31975;DHT22;18500;43.618;1.474;2022-11-23T11:04:40;14.90;99.90
31975;DHT22;18500;43.618;1.474;2022-11-23T11:07:28;14.70;99.90
31975;DHT22;18500;43.618;1.474;2022-11-23T11:09:55;14.70;99.90
31975;DHT22;18500;43.618;1.474;2022-11-23T11:12:22;14.60;99.90
31975;DHT22;18500;43.618;1.474;2022-11-23T11:17:26;14.60;99.90
31975;DHT22;18500;43.618;1.474;2022-11-23T11:19:53;14.50;99.90
31975;DHT22;18500;43.618;1.474;2022-11-23T11:22:35;14.60;99.90
31975;DHT22;18500;43.618;1.474;2022-11-23T11:25:04;14.50;99.90
31975;DHT22;18500;43.618;1.474;2022-11-23T11:27:31;14.70;99.90
31975;DHT22;18500;43.618;1.474;2022-11-23T11:30:05;14.80;99.90
31975;DHT22;18500;43.618;1.474;2022-11-23T11:35:25;14.70;99.90
31975;DHT22;18500;43.618;1.474;2022-11-23T11:37:56;14.70;99.90
31975;DHT22;18500;43.618;1.474;2022-11-23T11:40:45;14.70;99.90
31975;DHT22;18500;43.618;1.474;2022-11-23T11:46:03;14.40;99.90
31975;DHT22;18500;43.618;1.474;2022-11-23T11:48:51;14.40;99.90
31975;DHT22;18500;43.618;1.474;2022-11-23T11:51:26;14.10;99.90
31975;DHT22;18500;43.618;1.474;2022-11-23T11:56:40;13.70;98.80
31975;DHT22;18500;43.618;1.474;2022-11-23T12:07:34;13.00;99.90
31975;DHT22;18500;43.618;1.474;2022-11-23T12:10:10;12.90;1.00
31975;DHT22;18500;43.618;1.474;2022-11-23T12:12:37;12.90;1.00
31975;DHT22;18500;43.618;1.474;2022-11-23T12:15:04;13.00;99.90
31975;DHT22;18500;43.618;1.474;2022-11-23T12:17:50;13.00;1.00
31975;DHT22;18500;43.618;1.474;2022-11-23T12:20:38;12.80;99.90
31975;DHT22;18500;43.618;1.474;2022-11-23T12:31:21;15.30;99.90
31975;DHT22;18500;43.618;1.474;2022-11-23T12:41:50;15.60;34.40
31975;DHT22;18500;43.618;1.474;2022-11-23T12:47:31;15.80;9.50
31975;DHT22;18500;43.618;1.474;2022-11-23T12:55:45;16.10;1.00
31975;DHT22;18500;43.618;1.474;2022-11-23T12:58:25;16.20;1.00
31975;DHT22;18500;43.618;1.474;2022-11-23T13:01:16;16.00;1.00
31975;DHT22;18500;43.618;1.474;2022-11-23T13:07:05;15.70;1.00
31975;DHT22;18500;43.618;1.474;2022-11-23T13:14:56;15.60;1.00
31975;DHT22;18500;43.618;1.474;2022-11-23T13:23:07;15.30;1.00
31975;DHT22;18500;43.618;1.474;2022-11-23T13:25:33;15.30;1.00
31975;DHT22;18500;43.618;1.474;2022-11-23T13:28:04;15.30;1.00
31975;DHT22;18500;43.618;1.474;2022-11-23T13:33:37;15.10;1.00
31975;DHT22;18500;43.618;1.474;2022-11-23T13:36:04;15.20;1.00
31975;DHT22;18500;43.618;1.474;2022-11-23T13:38:56;15.40;1.00
31975;DHT22;18500;43.618;1.474;2022-11-23T13:44:26;15.30;1.00
31975;DHT22;18500;43.618;1.474;2022-11-23T13:49:50;15.60;1.00
31975;DHT22;18500;43.618;1.474;2022-11-23T13:52:25;15.50;1.00
31975;DHT22;18500;43.618;1.474;2022-11-23T13:57:39;15.40;1.00
31975;DHT22;18500;43.618;1.474;2022-11-23T14:09:11;15.40;1.00
31975;DHT22;18500;43.618;1.474;2022-11-23T14:12:32;15.30;1.00
31975;DHT22;18500;43.618;1.474;2022-11-23T14:14:41;15.20;1.00
31975;DHT22;18500;43.618;1.474;2022-11-23T14:25:38;15.40;1.00
31975;DHT22;18500;43.618;1.474;2022-11-23T14:31:20;15.70;1.00
31975;DHT22;18500;43.618;1.474;2022-11-23T14:42:41;15.30;1.00
31975;DHT22;18500;43.618;1.474;2022-11-23T14:45:12;15.20;1.00
31975;DHT22;18500;43.618;1.474;2022-11-23T14:47:38;15.30;1.00
31975;DHT22;18500;43.618;1.474;2022-11-23T14:50:03;15.30;1.00
31975;DHT22;18500;43.618;1.474;2022-11-23T14:52:34;15.30;1.00
31975;DHT22;18500;43.618;1.474;2022-11-23T14:55:03;15.30;1.00
31975;DHT22;18500;43.618;1.474;2022-11-23T14:57:42;15.20;1.00
31975;DHT22;18500;43.618;1.474;2022-11-23T15:00:38;15.10;1.00
31975;DHT22;18500;43.618;1.474;2022-11-23T15:03:12;14.80;1.00
31975;DHT22;18500;43.618;1.474;2022-11-23T15:05:47;14.90;1.00
31975;DHT22;18500;43.618;1.474;2022-11-23T15:08:26;14.70;1.00
31975;DHT22;18500;43.618;1.474;2022-11-23T15:11:05;14.50;1.00
31975;DHT22;18500;43.618;1.474;2022-11-23T15:13:46;14.50;1.00
31975;DHT22;18500;43.618;1.474;2022-11-23T15:16:13;14.40;1.00
31975;DHT22;18500;43.618;1.474;2022-11-23T15:18:40;14.20;1.00
31975;DHT22;18500;43.618;1.474;2022-11-23T15:23:41;14.70;1.00
31975;DHT22;18500;43.618;1.474;2022-11-23T15:26:30;15.00;1.00
31975;DHT22;18500;43.618;1.474;2022-11-23T15:28:57;15.00;1.00
31975;DHT22;18500;43.618;1.474;2022-11-23T15:31:35;15.00;1.00
31975;DHT22;18500;43.618;1.474;2022-11-23T15:34:04;15.00;1.00
31975;DHT22;18500;43.618;1.474;2022-11-23T15:36:37;15.00;1.00
31975;DHT22;18500;43.618;1.474;2022-11-23T15:39:04;14.80;1.00
31975;DHT22;18500;43.618;1.474;2022-11-23T15:41:36;14.70;1.00
31975;DHT22;18500;43.618;1.474;2022-11-23T15:46:40;14.60;1.00
31975;DHT22;18500;43.618;1.474;2022-11-23T15:49:12;14.60;1.00
31975;DHT22;18500;43.618;1.474;2022-11-23T15:51:41;14.00;99.90
31975;DHT22;18500;43.618;1.474;2022-11-23T15:54:19;13.60;99.90
31975;DHT22;18500;43.618;1.474;2022-11-23T15:56:46;13.50;1.00
31975;DHT22;18500;43.618;1.474;2022-11-23T15:59:39;13.40;1.00
31975;DHT22;18500;43.618;1.474;2022-11-23T16:02:16;13.30;1.00
31975;DHT22;18500;43.618;1.474;2022-11-23T16:04:44;13.10;1.00
31975;DHT22;18500;43.618;1.474;2022-11-23T16:07:24;12.90;1.00
31975;DHT22;18500;43.618;1.474;2022-11-23T16:12:32;12.70;1.00
31975;DHT22;18500;43.618;1.474;2022-11-23T16:18:17;12.40;1.00
31975;DHT22;18500;43.618;1.474;2022-11-23T16:23:23;12.10;1.00
31975;DHT22;18500;43.618;1.474;2022-11-23T16:26:02;12.00;1.00
31975;DHT22;18500;43.618;1.474;2022-11-23T16:28:33;12.00;1.00
31975;DHT22;18500;43.618;1.474;2022-11-23T16:30:59;12.10;1.00
31975;DHT22;18500;43.618;1.474;2022-11-23T16:33:25;12.00;1.00
31975;DHT22;18500;43.618;1.474;2022-11-23T16:35:51;11.90;1.00
31975;DHT22;18500;43.618;1.474;2022-11-23T16:38:18;11.80;1.00
31975;DHT22;18500;43.618;1.474;2022-11-23T16:40:44;11.90;1.00
31975;DHT22;18500;43.618;1.474;2022-11-23T16:43:13;12.10;1.00
31975;DHT22;18500;43.618;1.474;2022-11-23T16:45:43;12.20;1.00
31975;DHT22;18500;43.618;1.474;2022-11-23T16:50:53;12.30;1.00
31975;DHT22;18500;43.618;1.474;2022-11-23T16:53:20;12.30;1.00
31975;DHT22;18500;43.618;1.474;2022-11-23T16:55:50;12.40;1.00
31975;DHT22;18500;43.618;1.474;2022-11-23T16:58:17;12.40;1.00
31975;DHT22;18500;43.618;1.474;2022-11-23T17:00:43;12.40;1.00
31975;DHT22;18500;43.618;1.474;2022-11-23T17:03:15;12.20;1.00
31975;DHT22;18500;43.618;1.474;2022-11-23T17:05:42;12.20;1.00
31975;DHT22;18500;43.618;1.474;2022-11-23T17:08:07;12.10;1.00
31975;DHT22;18500;43.618;1.474;2022-11-23T17:10:35;12.10;1.00
31975;DHT22;18500;43.618;1.474;2022-11-23T17:13:01;12.00;1.00
31975;DHT22;18500;43.618;1.474;2022-11-23T17:15:28;11.90;1.00
31975;DHT22;18500;43.618;1.474;2022-11-23T17:17:55;11.90;1.00
31975;DHT22;18500;43.618;1.474;2022-11-23T17:20:21;11.90;1.00
31975;DHT22;18500;43.618;1.474;2022-11-23T17:22:47;11.80;1.00
31975;DHT22;18500;43.618;1.474;2022-11-23T17:25:16;11.90;1.00
31975;DHT22;18500;43.618;1.474;2022-11-23T17:27:42;12.00;1.00
31975;DHT22;18500;43.618;1.474;2022-11-23T17:30:21;12.00;1.00
31975;DHT22;18500;43.618;1.474;2022-11-23T17:32:49;11.90;1.00
31975;DHT22;18500;43.618;1.474;2022-11-23T17:35:16;12.00;1.00
31975;DHT22;18500;43.618;1.474;2022-11-23T17:37:41;11.80;1.00
31975;DHT22;18500;43.618;1.474;2022-11-23T17:40:18;11.60;1.00
31975;DHT22;18500;43.618;1.474;2022-11-23T17:42:44;11.40;1.00
31975;DHT22;18500;43.618;1.474;2022-11-23T17:45:11;11.30;1.00
31975;DHT22;18500;43.618;1.474;2022-11-23T17:47:37;11.30;1.00
31975;DHT22;18500;43.618;1.474;2022-11-23T17:50:04;11.20;1.00
31975;DHT22;18500;43.618;1.474;2022-11-23T17:52:31;11.10;1.00
31975;DHT22;18500;43.618;1.474;2022-11-23T17:54:57;11.10;1.00
31975;DHT22;18500;43.618;1.474;2022-11-23T17:57:24;11.00;1.00
31975;DHT22;18500;43.618;1.474;2022-11-23T17:59:50;10.90;1.00
31975;DHT22;18500;43.618;1.474;2022-11-23T18:02:16;10.80;1.00
31975;DHT22;18500;43.618;1.474;2022-11-23T18:04:44;10.70;1.00
31975;DHT22;18500;43.618;1.474;2022-11-23T18:07:12;10.70;1.00
31975;DHT22;18500;43.618;1.474;2022-11-23T18:09:38;10.50;1.00
31975;DHT22;18500;43.618;1.474;2022-11-23T18:12:04;10.40;1.00
31975;DHT22;18500;43.618;1.474;2022-11-23T18:14:30;10.30;1.00
31975;DHT22;18500;43.618;1.474;2022-11-23T18:16:56;10.20;1.00
31975;DHT22;18500;43.618;1.474;2022-11-23T18:19:22;10.30;1.00
31975;DHT22;18500;43.618;1.474;2022-11-23T18:21:48;10.30;1.00
31975;DHT22;18500;43.618;1.474;2022-11-23T18:24:14;10.20;1.00
31975;DHT22;18500;43.618;1.474;2022-11-23T18:26:40;10.10;1.00
31975;DHT22;18500;43.618;1.474;2022-11-23T18:29:06;10.00;1.00
31975;DHT22;18500;43.618;1.474;2022-11-23T18:31:32;10.00;1.00
31975;DHT22;18500;43.618;1.474;2022-11-23T18:33:58;9.90;1.00
31975;DHT22;18500;43.618;1.474;2022-11-23T18:36:24;9.90;1.00
31975;DHT22;18500;43.618;1.474;2022-11-23T18:38:49;9.90;1.00
31975;DHT22;18500;43.618;1.474;2022-11-23T18:41:15;9.80;1.00
31975;DHT22;18500;43.618;1.474;2022-11-23T18:43:42;9.80;1.00
31975;DHT22;18500;43.618;1.474;2022-11-23T18:46:09;9.80;1.00
31975;DHT22;18500;43.618;1.474;2022-11-23T18:48:35;9.90;1.00
31975;DHT22;18500;43.618;1.474;2022-11-23T18:51:02;10.00;1.00
31975;DHT22;18500;43.618;1.474;2022-11-23T18:53:29;10.00;1.00
31975;DHT22;18500;43.618;1.474;2022-11-23T18:55:55;10.00;1.00
31975;DHT22;18500;43.618;1.474;2022-11-23T18:58:20;9.90;1.00
31975;DHT22;18500;43.618;1.474;2022-11-23T19:00:46;9.80;1.00
31975;DHT22;18500;43.618;1.474;2022-11-23T19:03:12;9.80;1.60
31975;DHT22;18500;43.618;1.474;2022-11-23T19:05:38;9.70;3.70
31975;DHT22;18500;43.618;1.474;2022-11-23T19:08:06;9.80;4.60
31975;DHT22;18500;43.618;1.474;2022-11-23T19:10:33;9.70;4.40
31975;DHT22;18500;43.618;1.474;2022-11-23T19:12:59;9.80;1.00
31975;DHT22;18500;43.618;1.474;2022-11-23T19:15:25;10.10;1.00
31975;DHT22;18500;43.618;1.474;2022-11-23T19:17:51;10.00;1.00
31975;DHT22;18500;43.618;1.474;2022-11-23T19:20:17;10.10;1.00
31975;DHT22;18500;43.618;1.474;2022-11-23T19:22:45;10.10;1.00
31975;DHT22;18500;43.618;1.474;2022-11-23T19:25:10;10.10;1.00
31975;DHT22;18500;43.618;1.474;2022-11-23T19:27:36;10.30;1.00
31975;DHT22;18500;43.618;1.474;2022-11-23T19:30:05;10.30;1.00
31975;DHT22;18500;43.618;1.474;2022-11-23T19:32:35;10.30;1.00
31975;DHT22;18500;43.618;1.474;2022-11-23T19:35:01;10.30;1.00
31975;DHT22;18500;43.618;1.474;2022-11-23T19:37:27;10.40;1.00
31975;DHT22;18500;43.618;1.474;2022-11-23T19:39:53;10.50;1.00
31975;DHT22;18500;43.618;1.474;2022-11-23T19:42:19;10.40;1.00
31975;DHT22;18500;43.618;1.474;2022-11-23T19:44:44;10.50;1.00
31975;DHT22;18500;43.618;1.474;2022-11-23T19:47:10;10.50;1.00
31975;DHT22;18500;43.618;1.474;2022-11-23T19:49:36;10.40;1.00
31975;DHT22;18500;43.618;1.474;2022-11-23T19:52:01;10.30;1.00
31975;DHT22;18500;43.618;1.474;2022-11-23T19:54:29;10.30;1.00
31975;DHT22;18500;43.618;1.474;2022-11-23T19:56:55;10.20;1.00
31975;DHT22;18500;43.618;1.474;2022-11-23T19:59:20;10.10;1.00
31975;DHT22;18500;43.618;1.474;2022-11-23T20:01:46;10.00;1.00
31975;DHT22;18500;43.618;1.474;2022-11-23T20:04:12;10.10;1.00
31975;DHT22;18500;43.618;1.474;2022-11-23T20:06:39;10.30;1.00
31975;DHT22;18500;43.618;1.474;2022-11-23T20:09:11;10.10;1.00
31975;DHT22;18500;43.618;1.474;2022-11-23T20:11:39;10.10;1.00
31975;DHT22;18500;43.618;1.474;2022-11-23T20:14:05;9.90;1.00
31975;DHT22;18500;43.618;1.474;2022-11-23T20:16:31;9.70;1.00
31975;DHT22;18500;43.618;1.474;2022-11-23T20:19:03;9.90;1.00
31975;DHT22;18500;43.618;1.474;2022-11-23T20:21:29;9.90;1.00
31975;DHT22;18500;43.618;1.474;2022-11-23T20:24:13;9.90;1.00
31975;DHT22;18500;43.618;1.474;2022-11-23T20:26:40;9.80;1.00
31975;DHT22;18500;43.618;1.474;2022-11-23T20:29:07;10.00;1.00
31975;DHT22;18500;43.618;1.474;2022-11-23T20:31:33;10.10;1.00
31975;DHT22;18500;43.618;1.474;2022-11-23T20:33:59;10.10;1.00
31975;DHT22;18500;43.618;1.474;2022-11-23T20:36:26;10.10;1.00
31975;DHT22;18500;43.618;1.474;2022-11-23T20:38:52;10.10;1.00
31975;DHT22;18500;43.618;1.474;2022-11-23T20:41:24;10.00;1.00
31975;DHT22;18500;43.618;1.474;2022-11-23T20:43:58;9.90;1.00
31975;DHT22;18500;43.618;1.474;2022-11-23T20:46:24;9.90;1.00
31975;DHT22;18500;43.618;1.474;2022-11-23T20:48:51;10.00;1.00
31975;DHT22;18500;43.618;1.474;2022-11-23T20:51:21;9.90;1.00
31975;DHT22;18500;43.618;1.474;2022-11-23T20:53:47;9.80;1.00
31975;DHT22;18500;43.618;1.474;2022-11-23T20:56:13;9.80;1.00
31975;DHT22;18500;43.618;1.474;2022-11-23T20:58:39;9.60;1.00
31975;DHT22;18500;43.618;1.474;2022-11-23T21:01:07;9.50;1.00
31975;DHT22;18500;43.618;1.474;2022-11-23T21:03:34;9.50;1.00
31975;DHT22;18500;43.618;1.474;2022-11-23T21:06:04;9.60;1.00
31975;DHT22;18500;43.618;1.474;2022-11-23T21:08:31;9.60;1.00
31975;DHT22;18500;43.618;1.474;2022-11-23T21:11:27;9.70;1.00
31975;DHT22;18500;43.618;1.474;2022-11-23T21:14:23;9.90;1.00
31975;DHT22;18500;43.618;1.474;2022-11-23T21:16:53;10.00;1.00
31975;DHT22;18500;43.618;1.474;2022-11-23T21:21:53;9.80;1.00
31975;DHT22;18500;43.618;1.474;2022-11-23T21:24:19;9.80;1.00
31975;DHT22;18500;43.618;1.474;2022-11-23T21:26:45;9.90;1.00
31975;DHT22;18500;43.618;1.474;2022-11-23T21:29:11;9.80;1.00
31975;DHT22;18500;43.618;1.474;2022-11-23T21:31:38;9.70;1.00
31975;DHT22;18500;43.618;1.474;2022-11-23T21:34:04;9.70;1.00
31975;DHT22;18500;43.618;1.474;2022-11-23T21:36:32;9.50;1.00
31975;DHT22;18500;43.618;1.474;2022-11-23T21:39:01;9.40;1.00
31975;DHT22;18500;43.618;1.474;2022-11-23T21:41:27;9.40;1.00
31975;DHT22;18500;43.618;1.474;2022-11-23T21:43:53;9.70;1.00
31975;DHT22;18500;43.618;1.474;2022-11-23T21:46:19;9.60;1.00
31975;DHT22;18500;43.618;1.474;2022-11-23T21:48:49;9.50;1.00
31975;DHT22;18500;43.618;1.474;2022-11-23T21:51:15;9.60;1.00
31975;DHT22;18500;43.618;1.474;2022-11-23T21:53:41;9.60;1.00
31975;DHT22;18500;43.618;1.474;2022-11-23T21:56:12;9.70;1.00
31975;DHT22;18500;43.618;1.474;2022-11-23T21:58:39;9.70;1.00
31975;DHT22;18500;43.618;1.474;2022-11-23T22:01:17;9.80;1.00
31975;DHT22;18500;43.618;1.474;2022-11-23T22:06:13;9.60;1.00
31975;DHT22;18500;43.618;1.474;2022-11-23T22:08:44;9.50;1.00
31975;DHT22;18500;43.618;1.474;2022-11-23T22:11:12;9.50;1.00
31975;DHT22;18500;43.618;1.474;2022-11-23T22:13:39;9.40;1.00
31975;DHT22;18500;43.618;1.474;2022-11-23T22:16:17;9.40;1.00
31975;DHT22;18500;43.618;1.474;2022-11-23T22:18:44;9.30;1.00
31975;DHT22;18500;43.618;1.474;2022-11-23T22:21:10;9.20;1.00
31975;DHT22;18500;43.618;1.474;2022-11-23T22:23:36;9.10;2.00
31975;DHT22;18500;43.618;1.474;2022-11-23T22:26:07;9.10;3.10
31975;DHT22;18500;43.618;1.474;2022-11-23T22:28:35;9.00;4.40
31975;DHT22;18500;43.618;1.474;2022-11-23T22:31:02;9.00;11.50
31975;DHT22;18500;43.618;1.474;2022-11-23T22:33:29;8.90;12.80
31975;DHT22;18500;43.618;1.474;2022-11-23T22:36:05;8.90;14.80
31975;DHT22;18500;43.618;1.474;2022-11-23T22:38:31;8.90;17.10
31975;DHT22;18500;43.618;1.474;2022-11-23T22:41:01;9.00;16.10
